createdAt,value
2018-04-19T00:02:27.066Z,64.11
2018-04-19T00:04:54.486Z,64.04
2018-04-19T00:07:21.878Z,64.16
2018-04-19T00:09:49.334Z,63.96
2018-04-19T00:12:16.788Z,64.12
2018-04-19T00:14:44.580Z,64.04
2018-04-19T00:17:11.993Z,64.15
2018-04-19T00:19:39.461Z,63.80
2018-04-19T00:22:06.852Z,64.47
2018-04-19T00:24:34.250Z,65.00
2018-04-19T00:27:01.717Z,65.33
2018-04-19T00:29:29.137Z,65.09
2018-04-19T00:31:56.538Z,65.20
2018-04-19T00:34:23.956Z,65.59
2018-04-19T00:36:51.345Z,66.04
2018-04-19T00:39:18.757Z,66.29
2018-04-19T00:41:46.153Z,66.26
2018-04-19T00:44:13.578Z,66.47
2018-04-19T00:46:40.972Z,66.67
2018-04-19T00:49:08.358Z,66.90
2018-04-19T00:51:35.764Z,66.96
2018-04-19T00:54:03.148Z,67.26
2018-04-19T00:56:30.566Z,66.97
2018-04-19T00:58:57.936Z,66.49
2018-04-19T01:01:25.356Z,66.30
2018-04-19T01:03:52.758Z,65.98
2018-04-19T01:06:20.178Z,65.71
2018-04-19T01:08:47.646Z,65.67
2018-04-19T01:11:15.046Z,65.57
2018-04-19T01:13:42.549Z,65.87
2018-04-19T01:16:10.930Z,66.74
2018-04-19T01:18:38.393Z,67.67
2018-04-19T01:21:05.804Z,67.20
2018-04-19T01:23:33.313Z,67.49
2018-04-19T01:26:00.748Z,68.37
2018-04-19T01:28:28.169Z,68.34
2018-04-19T01:30:55.571Z,67.60
2018-04-19T01:33:22.962Z,67.91
2018-04-19T01:36:02.464Z,67.82
2018-04-19T01:38:29.873Z,68.48
2018-04-19T01:40:57.281Z,68.51
2018-04-19T01:43:24.678Z,68.57
2018-04-19T01:45:52.102Z,69.20
2018-04-19T01:48:19.554Z,69.79
2018-04-19T01:50:46.949Z,69.68
2018-04-19T01:53:14.362Z,69.75
2018-04-19T01:55:41.758Z,69.66
2018-04-19T01:58:09.174Z,69.46
2018-04-19T02:00:36.663Z,69.85
2018-04-19T02:03:04.036Z,70.39
2018-04-19T02:05:31.445Z,70.93
2018-04-19T02:07:58.909Z,70.91
2018-04-19T02:10:26.300Z,71.06
2018-04-19T02:12:53.709Z,71.13
2018-04-19T02:15:21.125Z,71.39
2018-04-19T02:17:48.642Z,71.66
2018-04-19T02:20:16.041Z,72.12
2018-04-19T02:22:43.428Z,71.90
2018-04-19T02:25:10.927Z,72.39
2018-04-19T02:27:38.363Z,72.28
2018-04-19T02:30:05.758Z,71.63
2018-04-19T02:32:33.155Z,72.05
2018-04-19T02:35:06.115Z,72.53
2018-04-19T02:37:33.621Z,72.38
2018-04-19T02:40:01.071Z,72.37
2018-04-19T02:42:28.470Z,72.86
2018-04-19T02:44:55.878Z,72.66
2018-04-19T02:47:23.333Z,72.79
2018-04-19T02:49:50.743Z,73.04
2018-04-19T02:52:18.157Z,73.45
2018-04-19T02:54:45.631Z,74.22
2018-04-19T02:57:13.017Z,74.59
2018-04-19T02:59:40.406Z,74.08
2018-04-19T03:02:07.822Z,74.21
2018-04-19T03:04:35.245Z,74.68
2018-04-19T03:07:02.638Z,74.74
2018-04-19T03:09:30.043Z,74.35
2018-04-19T03:11:57.438Z,74.25
2018-04-19T03:14:24.849Z,74.19
2018-04-19T03:16:52.249Z,73.84
2018-04-19T03:19:19.649Z,73.88
2018-04-19T03:21:47.092Z,73.96
2018-04-19T03:24:14.588Z,74.24
2018-04-19T03:26:42.070Z,74.04
2018-04-19T03:29:09.533Z,74.35
2018-04-19T03:31:36.921Z,74.47
2018-04-19T03:34:04.317Z,73.73
2018-04-19T03:36:31.704Z,73.74
2018-04-19T03:38:59.174Z,73.92
2018-04-19T03:41:26.616Z,74.24
2018-04-19T03:43:54.096Z,74.39
2018-04-19T03:46:21.543Z,74.53
2018-04-19T03:48:48.960Z,74.74
2018-04-19T03:51:16.450Z,74.97
2018-04-19T03:53:43.911Z,73.74
2018-04-19T03:56:11.377Z,73.19
2018-04-19T03:58:38.889Z,73.39
2018-04-19T04:01:06.318Z,73.32
2018-04-19T04:03:33.681Z,73.25
2018-04-19T04:06:01.073Z,73.08
2018-04-19T04:08:28.482Z,73.87
2018-04-19T04:10:55.869Z,74.11
2018-04-19T04:13:23.353Z,74.16
2018-04-19T04:15:50.814Z,73.00
2018-04-19T04:18:30.062Z,72.31
2018-04-19T04:21:09.172Z,72.18
2018-04-19T04:23:48.356Z,72.03
2018-04-19T04:26:15.756Z,70.88
2018-04-19T04:28:43.163Z,70.65
2018-04-19T04:31:10.587Z,70.92
2018-04-19T04:33:37.972Z,70.62
2018-04-19T04:36:05.394Z,70.26
2018-04-19T04:38:32.792Z,70.14
2018-04-19T04:41:00.205Z,70.09
2018-04-19T04:43:27.605Z,70.27
2018-04-19T04:45:55.123Z,70.43
2018-04-19T04:48:22.512Z,70.48
2018-04-19T04:50:49.931Z,70.40
2018-04-19T04:53:17.341Z,70.10
2018-04-19T04:55:44.842Z,69.84
2018-04-19T04:58:12.241Z,70.16
2018-04-19T05:00:39.638Z,70.59
2018-04-19T05:03:07.056Z,70.31
2018-04-19T05:05:34.561Z,69.37
2018-04-19T05:08:01.953Z,69.10
2018-04-19T05:10:29.368Z,66.97
2018-04-19T05:12:56.770Z,64.47
2018-04-19T05:15:24.178Z,61.07
2018-04-19T05:17:51.585Z,57.37
2018-04-19T05:20:19.053Z,54.74
2018-04-19T05:22:46.449Z,51.77
2018-04-19T05:25:13.893Z,49.36
2018-04-19T05:27:41.360Z,47.10
2018-04-19T05:30:08.782Z,44.66
2018-04-19T05:32:36.177Z,43.13
2018-04-19T05:35:03.577Z,42.13
2018-04-19T05:37:30.980Z,42.00
2018-04-19T05:39:58.441Z,40.31
2018-04-19T05:42:25.845Z,39.01
2018-04-19T05:44:53.265Z,39.02
2018-04-19T05:47:20.666Z,38.15
2018-04-19T05:49:48.061Z,36.93
2018-04-19T05:52:15.461Z,36.77
2018-04-19T05:54:42.856Z,34.84
2018-04-19T05:57:10.258Z,34.65
2018-04-19T05:59:37.653Z,33.36
2018-04-19T06:02:05.062Z,32.98
2018-04-19T06:04:32.471Z,32.20
2018-04-19T06:06:59.875Z,31.38
2018-04-19T06:09:27.323Z,30.67
2018-04-19T06:11:54.717Z,30.59
2018-04-19T06:14:22.117Z,29.99
2018-04-19T06:16:49.541Z,29.23
2018-04-19T06:19:16.938Z,28.22
2018-04-19T06:21:44.338Z,29.69
2018-04-19T06:24:11.741Z,29.10
2018-04-19T06:26:39.137Z,28.89
2018-04-19T06:29:06.554Z,29.76
2018-04-19T06:31:33.949Z,29.89
2018-04-19T06:34:01.353Z,29.62
2018-04-19T06:36:28.772Z,29.42
2018-04-19T06:38:56.277Z,29.16
2018-04-19T06:41:23.674Z,28.53
2018-04-19T06:43:51.194Z,26.72
2018-04-19T06:46:18.599Z,26.95
2018-04-19T06:48:46.000Z,26.22
2018-04-19T06:51:13.504Z,25.00
2018-04-19T06:53:40.874Z,24.81
2018-04-19T06:56:08.293Z,25.35
2018-04-19T06:58:35.725Z,26.03
2018-04-19T07:01:03.160Z,26.45
2018-04-19T07:03:30.533Z,26.63
2018-04-19T07:05:57.925Z,27.64
2018-04-19T07:08:25.329Z,28.43
2018-04-19T07:10:52.729Z,29.24
2018-04-19T07:13:20.166Z,28.86
2018-04-19T07:15:47.565Z,27.43
2018-04-19T07:18:14.967Z,26.87
2018-04-19T07:20:42.373Z,26.47
2018-04-19T07:23:09.764Z,25.89
2018-04-19T07:25:37.165Z,25.32
2018-04-19T07:28:04.563Z,25.12
2018-04-19T07:30:31.968Z,25.09
2018-04-19T07:32:59.361Z,26.26
2018-04-19T07:35:26.767Z,25.14
2018-04-19T07:37:54.220Z,24.51
2018-04-19T07:40:21.653Z,24.19
2018-04-19T07:42:49.135Z,24.83
2018-04-19T07:45:16.593Z,25.86
2018-04-19T07:47:43.985Z,25.71
2018-04-19T07:50:11.386Z,25.13
2018-04-19T07:52:38.858Z,23.79
2018-04-19T07:55:06.261Z,23.17
2018-04-19T07:57:33.660Z,22.76
2018-04-19T08:00:01.065Z,24.37
2018-04-19T08:02:28.460Z,23.29
2018-04-19T08:04:55.870Z,23.35
2018-04-19T08:07:23.304Z,23.79
2018-04-19T08:09:50.706Z,22.65
2018-04-19T08:12:18.101Z,24.48
2018-04-19T08:14:45.567Z,22.49
2018-04-19T08:17:12.962Z,23.72
2018-04-19T08:19:40.387Z,23.25
2018-04-19T08:22:07.837Z,25.05
2018-04-19T08:24:35.347Z,23.73
2018-04-19T08:27:02.750Z,24.68
2018-04-19T08:29:30.174Z,23.97
2018-04-19T08:31:57.585Z,23.43
2018-04-19T08:34:24.984Z,24.78
2018-04-19T08:36:52.381Z,26.17
2018-04-19T08:39:19.773Z,25.53
2018-04-19T08:41:47.178Z,27.12
2018-04-19T08:44:14.564Z,26.96
2018-04-19T08:46:41.981Z,27.71
2018-04-19T08:49:09.406Z,27.96
2018-04-19T08:51:36.814Z,27.31
2018-04-19T08:54:04.206Z,28.88
2018-04-19T08:56:31.626Z,28.37
2018-04-19T08:58:59.025Z,28.23
2018-04-19T09:01:26.438Z,29.25
2018-04-19T09:03:53.838Z,28.87
2018-04-19T09:06:21.254Z,28.70
2018-04-19T09:08:48.709Z,30.52
2018-04-19T09:11:16.106Z,30.95
2018-04-19T09:13:43.601Z,32.44
2018-04-19T09:16:10.998Z,31.40
2018-04-19T09:18:38.443Z,33.40
2018-04-19T09:21:05.893Z,33.01
2018-04-19T09:23:33.365Z,33.34
2018-04-19T09:26:00.809Z,32.48
2018-04-19T09:28:28.227Z,31.97
2018-04-19T09:30:55.740Z,32.78
2018-04-19T09:33:23.129Z,32.05
2018-04-19T09:35:50.636Z,32.67
2018-04-19T09:38:18.089Z,32.20
2018-04-19T09:40:45.563Z,32.40
2018-04-19T09:43:12.967Z,34.07
2018-04-19T09:45:40.361Z,32.79
2018-04-19T09:48:07.769Z,32.79
2018-04-19T09:50:35.168Z,32.85
2018-04-19T09:53:02.570Z,29.94
2018-04-19T09:55:29.985Z,31.92
2018-04-19T09:58:08.424Z,31.61
2018-04-19T10:00:41.681Z,30.07
2018-04-19T10:03:14.621Z,30.24
2018-04-19T10:05:47.073Z,31.75
2018-04-19T10:08:14.480Z,30.84
2018-04-19T10:10:41.889Z,31.76
2018-04-19T10:13:09.294Z,30.33
2018-04-19T10:15:36.698Z,29.87
2018-04-19T10:18:04.098Z,31.41
2018-04-19T10:20:31.601Z,32.39
2018-04-19T10:22:59.058Z,30.69
2018-04-19T10:25:26.476Z,31.09
2018-04-19T10:27:53.957Z,33.04
2018-04-19T10:30:21.374Z,31.41
2018-04-19T10:32:48.785Z,31.27
2018-04-19T10:35:16.181Z,30.63
2018-04-19T10:37:43.612Z,30.18
2018-04-19T10:40:11.044Z,31.87
2018-04-19T10:42:38.424Z,32.62
2018-04-19T10:45:05.840Z,31.50
2018-04-19T10:47:33.262Z,32.09
2018-04-19T10:50:00.685Z,32.21
2018-04-19T10:52:28.162Z,32.00
2018-04-19T10:54:55.565Z,32.13
2018-04-19T10:57:22.964Z,31.03
2018-04-19T10:59:50.408Z,30.62
2018-04-19T11:02:17.870Z,32.40
2018-04-19T11:04:45.269Z,32.86
2018-04-19T11:07:12.669Z,31.19
2018-04-19T11:09:40.092Z,31.85
2018-04-19T11:12:07.493Z,30.34
2018-04-19T11:14:34.964Z,31.33
2018-04-19T11:17:02.416Z,30.06
2018-04-19T11:19:29.877Z,30.16
2018-04-19T11:21:57.281Z,29.45
2018-04-19T11:24:24.688Z,29.77
2018-04-19T11:26:52.082Z,28.01
2018-04-19T11:29:19.606Z,29.03
2018-04-19T11:31:47.062Z,30.87
2018-04-19T11:34:14.445Z,29.95
2018-04-19T11:36:41.851Z,28.21
2018-04-19T11:39:09.790Z,28.28
2018-04-19T11:41:37.189Z,27.78
2018-04-19T11:44:04.640Z,28.42
2018-04-19T11:46:32.056Z,27.94
2018-04-19T11:48:59.442Z,28.28
2018-04-19T11:51:26.888Z,27.82
2018-04-19T11:53:54.285Z,26.57
2018-04-19T11:56:21.725Z,27.12
2018-04-19T11:58:49.137Z,26.36
2018-04-19T12:01:16.537Z,24.84
2018-04-19T12:03:43.945Z,25.98
2018-04-19T12:06:11.377Z,26.22
2018-04-19T12:08:38.777Z,25.73
2018-04-19T12:11:06.181Z,26.22
2018-04-19T12:13:33.635Z,25.74
2018-04-19T12:16:01.032Z,27.33
2018-04-19T12:18:28.436Z,25.65
2018-04-19T12:20:55.829Z,23.55
2018-04-19T12:23:23.243Z,24.59
2018-04-19T12:25:50.708Z,26.04
2018-04-19T12:28:18.110Z,25.39
2018-04-19T12:30:45.500Z,26.24
2018-04-19T12:33:12.925Z,24.36
2018-04-19T12:35:40.368Z,24.91
2018-04-19T12:38:07.760Z,28.67
2018-04-19T12:40:35.149Z,24.32
2018-04-19T12:43:02.640Z,25.11
2018-04-19T12:45:30.026Z,25.62
2018-04-19T12:47:57.412Z,25.28
2018-04-19T12:50:24.819Z,25.55
2018-04-19T12:52:52.215Z,24.65
2018-04-19T12:55:19.614Z,25.38
2018-04-19T12:57:47.030Z,26.14
2018-04-19T13:00:14.455Z,25.38
2018-04-19T13:02:41.912Z,24.12
2018-04-19T13:05:09.334Z,24.60
2018-04-19T13:07:36.732Z,24.26
2018-04-19T13:10:04.182Z,25.25
2018-04-19T13:12:31.641Z,24.29
2018-04-19T13:14:59.045Z,24.54
2018-04-19T13:17:26.454Z,26.81
2018-04-19T13:19:53.852Z,24.81
2018-04-19T13:22:21.249Z,25.69
2018-04-19T13:24:48.740Z,24.21
2018-04-19T13:27:16.186Z,24.62
2018-04-19T13:29:43.585Z,24.09
2018-04-19T13:32:11.001Z,24.05
2018-04-19T13:34:38.412Z,24.32
2018-04-19T13:37:05.800Z,25.91
2018-04-19T13:39:33.285Z,24.31
2018-04-19T13:42:00.725Z,24.24
2018-04-19T13:44:28.130Z,25.39
2018-04-19T13:46:55.538Z,23.16
2018-04-19T13:49:22.942Z,26.79
2018-04-19T13:51:50.328Z,23.49
2018-04-19T13:54:17.737Z,24.98
2018-04-19T13:56:45.134Z,23.62
2018-04-19T13:59:12.529Z,23.85
2018-04-19T14:01:39.933Z,23.92
2018-04-19T14:04:07.337Z,23.38
2018-04-19T14:06:34.749Z,23.79
2018-04-19T14:09:02.149Z,24.25
2018-04-19T14:11:29.549Z,24.12
2018-04-19T14:13:57.022Z,23.59
2018-04-19T14:16:24.416Z,24.79
2018-04-19T14:18:51.833Z,24.83
2018-04-19T14:21:19.234Z,23.11
2018-04-19T14:23:46.645Z,23.79
2018-04-19T14:26:14.045Z,23.84
2018-04-19T14:28:41.458Z,24.21
2018-04-19T14:31:08.946Z,23.29
2018-04-19T14:33:36.299Z,24.27
2018-04-19T14:36:03.698Z,23.49
2018-04-19T14:38:31.200Z,24.12
2018-04-19T14:40:58.585Z,24.78
2018-04-19T14:43:26.000Z,24.80
2018-04-19T14:45:53.396Z,25.09
2018-04-19T14:48:20.809Z,25.82
2018-04-19T14:50:48.216Z,26.19
2018-04-19T14:53:15.616Z,24.44
2018-04-19T14:55:43.014Z,24.59
2018-04-19T14:58:10.412Z,24.76
2018-04-19T15:00:37.911Z,25.09
2018-04-19T15:03:05.354Z,25.02
2018-04-19T15:05:32.805Z,26.24
2018-04-19T15:08:00.266Z,26.57
2018-04-19T15:10:27.678Z,25.10
2018-04-19T15:12:55.061Z,25.12
2018-04-19T15:15:22.548Z,23.65
2018-04-19T15:17:49.924Z,23.90
2018-04-19T15:20:17.324Z,24.94
2018-04-19T15:22:44.796Z,24.86
2018-04-19T15:25:12.206Z,26.39
2018-04-19T15:27:39.590Z,24.50
2018-04-19T15:30:07.005Z,22.67
2018-04-19T15:32:34.397Z,23.63
2018-04-19T15:35:01.798Z,23.57
2018-04-19T15:37:29.189Z,22.34
2018-04-19T15:39:56.657Z,24.71
2018-04-19T15:42:24.217Z,23.41
2018-04-19T15:44:51.717Z,23.60
2018-04-19T15:47:19.132Z,23.50
2018-04-19T15:49:46.593Z,23.29
2018-04-19T15:52:14.000Z,24.56
2018-04-19T15:54:41.514Z,25.82
2018-04-19T15:57:08.968Z,24.73
2018-04-19T15:59:36.362Z,25.06
2018-04-19T16:02:03.812Z,24.90
2018-04-19T16:04:31.166Z,24.33
2018-04-19T16:06:58.590Z,24.33
2018-04-19T16:09:25.982Z,24.51
2018-04-19T16:11:54.223Z,25.19
2018-04-19T16:14:21.677Z,25.35
2018-04-19T16:16:49.084Z,26.35
2018-04-19T16:19:16.485Z,26.17
2018-04-19T16:21:43.889Z,26.48
2018-04-19T16:24:11.301Z,26.55
2018-04-19T16:26:38.693Z,27.28
2018-04-19T16:29:06.091Z,26.38
2018-04-19T16:31:33.487Z,27.17
2018-04-19T16:34:00.876Z,26.61
2018-04-19T16:36:28.290Z,27.47
2018-04-19T16:38:55.741Z,27.46
2018-04-19T16:41:23.140Z,27.11
2018-04-19T16:43:50.541Z,27.87
2018-04-19T16:46:17.936Z,27.93
2018-04-19T16:48:45.366Z,28.80
2018-04-19T16:51:12.834Z,28.94
2018-04-19T16:53:40.271Z,28.79
2018-04-19T16:56:07.656Z,28.89
2018-04-19T16:58:35.039Z,29.30
2018-04-19T17:01:02.448Z,29.66
2018-04-19T17:03:29.861Z,30.05
2018-04-19T17:05:57.234Z,29.61
2018-04-19T17:08:24.625Z,30.61
2018-04-19T17:10:52.037Z,29.97
2018-04-19T17:13:19.442Z,30.42
2018-04-19T17:15:46.888Z,30.00
2018-04-19T17:18:14.282Z,30.39
2018-04-19T17:20:41.766Z,30.74
2018-04-19T17:23:09.224Z,30.80
2018-04-19T17:25:36.617Z,30.60
2018-04-19T17:28:04.073Z,30.89
2018-04-19T17:30:31.493Z,31.50
2018-04-19T17:32:58.908Z,31.69
2018-04-19T17:35:26.293Z,31.43
2018-04-19T17:37:53.761Z,32.29
2018-04-19T17:40:21.205Z,32.32
2018-04-19T17:42:48.594Z,32.36
2018-04-19T17:45:15.973Z,32.69
2018-04-19T17:47:43.373Z,32.79
2018-04-19T17:50:10.773Z,33.46
2018-04-19T17:52:38.177Z,33.16
2018-04-19T17:55:05.696Z,33.25
2018-04-19T17:57:33.136Z,33.66
2018-04-19T18:00:00.519Z,33.79
2018-04-19T18:02:27.916Z,33.83
2018-04-19T18:04:55.314Z,34.44
2018-04-19T18:07:22.717Z,34.37
2018-04-19T18:09:50.110Z,34.60
2018-04-19T18:12:17.506Z,35.04
2018-04-19T18:14:44.888Z,35.14
2018-04-19T18:17:12.283Z,35.29
2018-04-19T18:19:39.730Z,35.74
2018-04-19T18:22:07.123Z,36.07
2018-04-19T18:24:34.537Z,36.02
2018-04-19T18:27:01.997Z,36.18
2018-04-19T18:29:29.441Z,36.35
2018-04-19T18:31:56.834Z,36.23
2018-04-19T18:34:24.237Z,36.14
2018-04-19T18:36:51.708Z,36.44
2018-04-19T18:39:19.060Z,36.57
2018-04-19T18:41:46.513Z,36.93
2018-04-19T18:44:13.956Z,37.02
2018-04-19T18:46:41.345Z,36.91
2018-04-19T18:49:08.760Z,37.22
2018-04-19T18:51:36.222Z,37.60
2018-04-19T18:54:03.610Z,37.77
2018-04-19T18:56:31.040Z,37.91
2018-04-19T18:58:58.490Z,38.43
2018-04-19T19:01:25.892Z,38.48
2018-04-19T19:03:53.292Z,38.69
2018-04-19T19:06:20.677Z,38.70
2018-04-19T19:08:48.064Z,38.83
2018-04-19T19:11:15.474Z,38.68
2018-04-19T19:13:42.872Z,39.20
2018-04-19T19:16:10.336Z,39.39
2018-04-19T19:18:49.576Z,39.22
2018-04-19T19:21:17.137Z,39.40
2018-04-19T19:23:44.533Z,39.67
2018-04-19T19:26:11.926Z,40.24
2018-04-19T19:28:39.323Z,40.40
2018-04-19T19:31:06.714Z,40.62
2018-04-19T19:33:34.213Z,40.66
2018-04-19T19:36:01.616Z,40.84
2018-04-19T19:38:29.084Z,41.07
2018-04-19T19:40:56.440Z,41.64
2018-04-19T19:43:23.825Z,42.06
2018-04-19T19:45:51.245Z,42.78
2018-04-19T19:48:18.655Z,42.67
2018-04-19T19:50:46.109Z,43.25
2018-04-19T19:53:13.560Z,44.02
2018-04-19T19:55:40.968Z,44.58
2018-04-19T19:58:08.410Z,45.58
2018-04-19T20:00:35.772Z,45.88
2018-04-19T20:03:03.166Z,46.00
2018-04-19T20:05:30.565Z,46.67
2018-04-19T20:07:58.004Z,47.09
2018-04-19T20:10:25.448Z,47.77
2018-04-19T20:12:52.932Z,48.01
2018-04-19T20:15:20.326Z,48.40
2018-04-19T20:17:47.734Z,48.65
2018-04-19T20:20:15.189Z,49.01
2018-04-19T20:22:42.577Z,49.82
2018-04-19T20:25:09.981Z,50.58
2018-04-19T20:27:37.373Z,50.79
2018-04-19T20:30:04.791Z,50.88
2018-04-19T20:32:32.165Z,50.99
2018-04-19T20:34:59.592Z,51.12
2018-04-19T20:37:27.059Z,51.06
2018-04-19T20:39:54.456Z,51.23
2018-04-19T20:42:21.846Z,51.12
2018-04-19T20:44:49.326Z,51.15
2018-04-19T20:47:16.720Z,51.06
2018-04-19T20:49:44.785Z,51.02
2018-04-19T20:52:12.186Z,51.14
2018-04-19T20:54:39.577Z,51.59
2018-04-19T20:57:06.986Z,51.89
2018-04-19T20:59:34.384Z,51.75
2018-04-19T21:02:01.827Z,51.94
2018-04-19T21:04:29.272Z,52.21
2018-04-19T21:06:56.676Z,52.68
2018-04-19T21:09:24.097Z,52.73
2018-04-19T21:11:51.555Z,52.66
2018-04-19T21:14:19.029Z,52.98
2018-04-19T21:16:46.417Z,53.08
2018-04-19T21:19:13.805Z,52.78
2018-04-19T21:21:41.201Z,52.63
2018-04-19T21:24:08.613Z,53.14
2018-04-19T21:26:35.997Z,53.15
2018-04-19T21:29:03.408Z,53.11
2018-04-19T21:31:30.801Z,53.01
2018-04-19T21:33:58.194Z,52.74
2018-04-19T21:36:25.593Z,52.85
2018-04-19T21:38:53.040Z,52.80
2018-04-19T21:41:20.453Z,53.35
2018-04-19T21:43:47.886Z,54.44
2018-04-19T21:46:15.278Z,55.00
2018-04-19T21:48:42.665Z,55.25
2018-04-19T21:51:10.064Z,55.64
2018-04-19T21:53:37.469Z,55.65
2018-04-19T21:56:04.966Z,55.62
2018-04-19T21:58:32.417Z,55.67
2018-04-19T22:00:59.881Z,55.49
2018-04-19T22:03:27.334Z,55.76
2018-04-19T22:05:54.741Z,55.35
2018-04-19T22:08:22.137Z,55.83
2018-04-19T22:10:49.542Z,55.92
2018-04-19T22:13:16.925Z,55.63
2018-04-19T22:15:44.381Z,55.50
2018-04-19T22:18:11.779Z,56.27
2018-04-19T22:20:39.309Z,56.47
2018-04-19T22:23:06.701Z,56.34
2018-04-19T22:25:34.101Z,56.25
2018-04-19T22:28:01.489Z,56.36
2018-04-19T22:30:28.907Z,56.34
2018-04-19T22:32:56.317Z,56.00
2018-04-19T22:35:23.772Z,56.26
2018-04-19T22:37:51.244Z,56.38
2018-04-19T22:40:18.649Z,56.40
2018-04-19T22:42:46.041Z,57.00
2018-04-19T22:45:13.450Z,57.41
2018-04-19T22:47:40.956Z,57.56
2018-04-19T22:50:08.377Z,57.55
2018-04-19T22:52:35.757Z,57.38
2018-04-19T22:55:03.168Z,57.41
2018-04-19T22:57:30.577Z,58.28
2018-04-19T22:59:58.049Z,57.94
2018-04-19T23:02:25.454Z,57.65
2018-04-19T23:04:52.954Z,57.89
2018-04-19T23:07:20.419Z,58.36
2018-04-19T23:09:47.877Z,58.38
2018-04-19T23:12:15.268Z,58.20
2018-04-19T23:14:42.683Z,58.35
2018-04-19T23:17:10.078Z,58.59
2018-04-19T23:19:37.490Z,58.53
2018-04-19T23:22:04.914Z,58.39
2018-04-19T23:24:32.369Z,58.58
2018-04-19T23:26:59.825Z,58.58
2018-04-19T23:29:27.242Z,58.56
2018-04-19T23:31:54.642Z,58.28
2018-04-19T23:34:22.056Z,58.47
2018-04-19T23:36:49.429Z,58.49
2018-04-19T23:39:16.916Z,58.72
2018-04-19T23:41:44.417Z,58.28
2018-04-19T23:44:11.819Z,58.10
2018-04-19T23:46:39.236Z,58.24
2018-04-19T23:49:06.648Z,58.62
2018-04-19T23:51:34.190Z,59.02
2018-04-19T23:54:01.581Z,59.33
2018-04-19T23:56:28.981Z,59.65
2018-04-19T23:58:56.426Z,60.13
